sensor_id;sensor_type;location;lat;lon;timestamp;P1;durP1;ratioP1;P2;durP2;ratioP2
24857;SDS011;12935;50.782;6.074;2023-07-13T00:00:17;31.13;;;12.30;;
24857;SDS011;12935;50.782;6.074;2023-07-13T00:02:42;23.60;;;12.30;;
24857;SDS011;12935;50.782;6.074;2023-07-13T00:05:08;27.43;;;11.00;;
24857;SDS011;12935;50.782;6.074;2023-07-13T00:07:34;39.77;;;12.50;;
24857;SDS011;12935;50.782;6.074;2023-07-13T00:10:01;35.93;;;12.60;;
24857;SDS011;12935;50.782;6.074;2023-07-13T00:12:31;20.20;;;10.80;;
24857;SDS011;12935;50.782;6.074;2023-07-13T00:14:59;33.27;;;11.17;;
24857;SDS011;12935;50.782;6.074;2023-07-13T00:17:28;24.70;;;10.97;;
24857;SDS011;12935;50.782;6.074;2023-07-13T00:19:55;61.53;;;15.87;;
24857;SDS011;12935;50.782;6.074;2023-07-13T00:22:21;39.27;;;12.30;;
24857;SDS011;12935;50.782;6.074;2023-07-13T00:24:50;36.40;;;12.20;;
24857;SDS011;12935;50.782;6.074;2023-07-13T00:27:21;28.23;;;11.70;;
24857;SDS011;12935;50.782;6.074;2023-07-13T00:29:46;69.47;;;16.77;;
24857;SDS011;12935;50.782;6.074;2023-07-13T00:32:11;40.90;;;13.37;;
24857;SDS011;12935;50.782;6.074;2023-07-13T00:34:37;28.77;;;11.33;;
24857;SDS011;12935;50.782;6.074;2023-07-13T00:37:04;18.73;;;10.17;;
24857;SDS011;12935;50.782;6.074;2023-07-13T00:39:31;39.10;;;12.63;;
24857;SDS011;12935;50.782;6.074;2023-07-13T00:41:57;22.90;;;10.90;;
24857;SDS011;12935;50.782;6.074;2023-07-13T00:44:22;27.73;;;11.17;;
24857;SDS011;12935;50.782;6.074;2023-07-13T00:46:48;38.90;;;11.97;;
24857;SDS011;12935;50.782;6.074;2023-07-13T00:49:15;20.93;;;11.97;;
24857;SDS011;12935;50.782;6.074;2023-07-13T00:51:45;26.00;;;10.90;;
24857;SDS011;12935;50.782;6.074;2023-07-13T00:54:15;33.90;;;12.27;;
24857;SDS011;12935;50.782;6.074;2023-07-13T00:56:44;25.17;;;11.13;;
24857;SDS011;12935;50.782;6.074;2023-07-13T00:59:11;31.97;;;11.70;;
24857;SDS011;12935;50.782;6.074;2023-07-13T01:01:39;31.50;;;11.13;;
24857;SDS011;12935;50.782;6.074;2023-07-13T01:04:05;25.50;;;11.40;;
24857;SDS011;12935;50.782;6.074;2023-07-13T01:06:33;34.57;;;12.50;;
24857;SDS011;12935;50.782;6.074;2023-07-13T01:09:02;26.90;;;10.60;;
24857;SDS011;12935;50.782;6.074;2023-07-13T01:11:28;36.33;;;11.47;;
24857;SDS011;12935;50.782;6.074;2023-07-13T01:13:54;21.70;;;10.17;;
24857;SDS011;12935;50.782;6.074;2023-07-13T01:16:22;31.90;;;11.07;;
24857;SDS011;12935;50.782;6.074;2023-07-13T01:18:50;57.93;;;14.60;;
24857;SDS011;12935;50.782;6.074;2023-07-13T01:21:16;19.53;;;10.13;;
24857;SDS011;12935;50.782;6.074;2023-07-13T01:23:42;23.17;;;11.20;;
24857;SDS011;12935;50.782;6.074;2023-07-13T01:26:08;28.50;;;10.80;;
24857;SDS011;12935;50.782;6.074;2023-07-13T01:28:33;20.70;;;9.93;;
24857;SDS011;12935;50.782;6.074;2023-07-13T01:31:01;30.63;;;11.60;;
24857;SDS011;12935;50.782;6.074;2023-07-13T01:33:27;28.43;;;11.00;;
24857;SDS011;12935;50.782;6.074;2023-07-13T01:35:52;14.17;;;9.60;;
24857;SDS011;12935;50.782;6.074;2023-07-13T01:38:20;45.70;;;12.17;;
24857;SDS011;12935;50.782;6.074;2023-07-13T01:40:47;26.43;;;10.63;;
24857;SDS011;12935;50.782;6.074;2023-07-13T01:43:13;18.17;;;10.03;;
24857;SDS011;12935;50.782;6.074;2023-07-13T01:45:39;39.60;;;12.30;;
24857;SDS011;12935;50.782;6.074;2023-07-13T01:48:04;26.33;;;10.90;;
24857;SDS011;12935;50.782;6.074;2023-07-13T01:50:31;29.93;;;11.13;;
24857;SDS011;12935;50.782;6.074;2023-07-13T01:52:57;30.60;;;10.90;;
24857;SDS011;12935;50.782;6.074;2023-07-13T01:55:22;22.17;;;10.17;;
24857;SDS011;12935;50.782;6.074;2023-07-13T01:57:48;27.27;;;10.80;;
24857;SDS011;12935;50.782;6.074;2023-07-13T02:00:13;34.43;;;12.50;;
24857;SDS011;12935;50.782;6.074;2023-07-13T02:02:40;19.33;;;10.77;;
24857;SDS011;12935;50.782;6.074;2023-07-13T02:05:05;27.90;;;10.40;;
24857;SDS011;12935;50.782;6.074;2023-07-13T02:07:31;44.00;;;11.80;;
24857;SDS011;12935;50.782;6.074;2023-07-13T02:09:57;67.30;;;14.30;;
24857;SDS011;12935;50.782;6.074;2023-07-13T02:12:22;26.90;;;10.70;;
24857;SDS011;12935;50.782;6.074;2023-07-13T02:14:47;37.60;;;11.67;;
24857;SDS011;12935;50.782;6.074;2023-07-13T02:17:13;33.07;;;11.70;;
24857;SDS011;12935;50.782;6.074;2023-07-13T02:19:38;35.77;;;11.73;;
24857;SDS011;12935;50.782;6.074;2023-07-13T02:22:04;24.67;;;10.17;;
24857;SDS011;12935;50.782;6.074;2023-07-13T02:24:29;23.13;;;10.33;;
24857;SDS011;12935;50.782;6.074;2023-07-13T02:26:54;43.50;;;12.57;;
24857;SDS011;12935;50.782;6.074;2023-07-13T02:29:20;32.27;;;11.73;;
24857;SDS011;12935;50.782;6.074;2023-07-13T02:31:45;31.37;;;11.70;;
24857;SDS011;12935;50.782;6.074;2023-07-13T02:34:10;47.63;;;12.80;;
24857;SDS011;12935;50.782;6.074;2023-07-13T02:36:36;23.27;;;10.47;;
24857;SDS011;12935;50.782;6.074;2023-07-13T02:39:02;30.97;;;11.73;;
24857;SDS011;12935;50.782;6.074;2023-07-13T02:41:30;37.40;;;11.43;;
24857;SDS011;12935;50.782;6.074;2023-07-13T02:43:57;29.20;;;12.00;;
24857;SDS011;12935;50.782;6.074;2023-07-13T02:46:29;19.60;;;10.90;;
24857;SDS011;12935;50.782;6.074;2023-07-13T02:48:58;31.33;;;10.87;;
24857;SDS011;12935;50.782;6.074;2023-07-13T02:51:24;21.43;;;9.80;;
24857;SDS011;12935;50.782;6.074;2023-07-13T02:53:49;28.33;;;10.50;;
24857;SDS011;12935;50.782;6.074;2023-07-13T02:56:15;28.27;;;10.10;;
24857;SDS011;12935;50.782;6.074;2023-07-13T02:58:40;21.67;;;10.23;;
24857;SDS011;12935;50.782;6.074;2023-07-13T03:01:09;13.23;;;8.97;;
24857;SDS011;12935;50.782;6.074;2023-07-13T03:03:35;29.63;;;10.63;;
24857;SDS011;12935;50.782;6.074;2023-07-13T03:06:01;9.97;;;8.93;;
24857;SDS011;12935;50.782;6.074;2023-07-13T03:08:28;15.20;;;8.27;;
24857;SDS011;12935;50.782;6.074;2023-07-13T03:11:07;36.47;;;11.23;;
24857;SDS011;12935;50.782;6.074;2023-07-13T03:13:33;52.47;;;13.63;;
24857;SDS011;12935;50.782;6.074;2023-07-13T03:15:59;15.93;;;9.20;;
24857;SDS011;12935;50.782;6.074;2023-07-13T03:18:26;15.93;;;9.33;;
24857;SDS011;12935;50.782;6.074;2023-07-13T03:20:52;38.77;;;12.03;;
24857;SDS011;12935;50.782;6.074;2023-07-13T03:23:17;17.83;;;9.13;;
24857;SDS011;12935;50.782;6.074;2023-07-13T03:25:43;21.40;;;10.37;;
24857;SDS011;12935;50.782;6.074;2023-07-13T03:28:10;28.43;;;10.27;;
24857;SDS011;12935;50.782;6.074;2023-07-13T03:30:35;25.80;;;9.97;;
24857;SDS011;12935;50.782;6.074;2023-07-13T03:33:01;19.33;;;9.80;;
24857;SDS011;12935;50.782;6.074;2023-07-13T03:35:26;26.60;;;9.90;;
24857;SDS011;12935;50.782;6.074;2023-07-13T03:37:52;20.33;;;9.43;;
24857;SDS011;12935;50.782;6.074;2023-07-13T03:40:17;33.83;;;10.47;;
24857;SDS011;12935;50.782;6.074;2023-07-13T03:42:42;18.10;;;9.70;;
24857;SDS011;12935;50.782;6.074;2023-07-13T03:45:08;17.20;;;8.77;;
24857;SDS011;12935;50.782;6.074;2023-07-13T03:47:33;26.23;;;9.90;;
24857;SDS011;12935;50.782;6.074;2023-07-13T03:49:59;28.20;;;10.43;;
24857;SDS011;12935;50.782;6.074;2023-07-13T03:52:24;23.60;;;9.77;;
24857;SDS011;12935;50.782;6.074;2023-07-13T03:54:49;44.57;;;11.90;;
24857;SDS011;12935;50.782;6.074;2023-07-13T03:57:14;14.83;;;9.50;;
24857;SDS011;12935;50.782;6.074;2023-07-13T03:59:40;30.77;;;10.63;;
24857;SDS011;12935;50.782;6.074;2023-07-13T04:02:05;12.27;;;8.90;;
24857;SDS011;12935;50.782;6.074;2023-07-13T04:04:30;24.50;;;10.17;;
24857;SDS011;12935;50.782;6.074;2023-07-13T04:06:57;29.23;;;9.97;;
24857;SDS011;12935;50.782;6.074;2023-07-13T04:09:24;35.30;;;11.67;;
24857;SDS011;12935;50.782;6.074;2023-07-13T04:11:50;18.60;;;9.60;;
24857;SDS011;12935;50.782;6.074;2023-07-13T04:14:16;37.63;;;11.27;;
24857;SDS011;12935;50.782;6.074;2023-07-13T04:16:41;28.43;;;9.50;;
24857;SDS011;12935;50.782;6.074;2023-07-13T04:19:07;15.47;;;8.67;;
24857;SDS011;12935;50.782;6.074;2023-07-13T04:21:35;35.83;;;10.90;;
24857;SDS011;12935;50.782;6.074;2023-07-13T04:24:01;18.50;;;9.20;;
24857;SDS011;12935;50.782;6.074;2023-07-13T04:26:27;19.80;;;9.63;;
24857;SDS011;12935;50.782;6.074;2023-07-13T04:28:53;37.60;;;11.37;;
24857;SDS011;12935;50.782;6.074;2023-07-13T04:31:19;20.70;;;9.17;;
24857;SDS011;12935;50.782;6.074;2023-07-13T04:33:44;25.33;;;11.30;;
24857;SDS011;12935;50.782;6.074;2023-07-13T04:36:10;33.13;;;9.90;;
24857;SDS011;12935;50.782;6.074;2023-07-13T04:38:35;32.50;;;10.57;;
24857;SDS011;12935;50.782;6.074;2023-07-13T04:41:02;35.50;;;11.00;;
24857;SDS011;12935;50.782;6.074;2023-07-13T04:43:30;34.30;;;11.27;;
24857;SDS011;12935;50.782;6.074;2023-07-13T04:45:57;23.37;;;9.90;;
24857;SDS011;12935;50.782;6.074;2023-07-13T04:48:28;21.33;;;9.43;;
24857;SDS011;12935;50.782;6.074;2023-07-13T04:50:54;37.47;;;11.70;;
24857;SDS011;12935;50.782;6.074;2023-07-13T04:53:21;20.80;;;10.90;;
24857;SDS011;12935;50.782;6.074;2023-07-13T04:55:47;15.03;;;8.90;;
24857;SDS011;12935;50.782;6.074;2023-07-13T04:58:12;22.07;;;10.10;;
24857;SDS011;12935;50.782;6.074;2023-07-13T05:00:38;19.70;;;8.77;;
24857;SDS011;12935;50.782;6.074;2023-07-13T05:03:04;29.43;;;9.80;;
24857;SDS011;12935;50.782;6.074;2023-07-13T05:05:29;53.03;;;13.03;;
24857;SDS011;12935;50.782;6.074;2023-07-13T05:07:55;39.23;;;10.83;;
24857;SDS011;12935;50.782;6.074;2023-07-13T05:10:20;26.50;;;10.30;;
24857;SDS011;12935;50.782;6.074;2023-07-13T05:12:46;21.67;;;9.30;;
24857;SDS011;12935;50.782;6.074;2023-07-13T05:15:12;30.20;;;10.83;;
24857;SDS011;12935;50.782;6.074;2023-07-13T05:17:37;30.73;;;10.73;;
24857;SDS011;12935;50.782;6.074;2023-07-13T05:20:04;32.90;;;10.80;;
24857;SDS011;12935;50.782;6.074;2023-07-13T05:22:30;26.10;;;10.80;;
24857;SDS011;12935;50.782;6.074;2023-07-13T05:24:56;33.30;;;12.63;;
24857;SDS011;12935;50.782;6.074;2023-07-13T05:27:21;19.23;;;9.50;;
24857;SDS011;12935;50.782;6.074;2023-07-13T05:29:46;30.83;;;12.57;;
24857;SDS011;12935;50.782;6.074;2023-07-13T05:32:12;48.37;;;12.50;;
24857;SDS011;12935;50.782;6.074;2023-07-13T05:34:37;16.87;;;9.30;;
24857;SDS011;12935;50.782;6.074;2023-07-13T05:37:02;25.30;;;10.90;;
24857;SDS011;12935;50.782;6.074;2023-07-13T05:39:28;39.77;;;11.67;;
24857;SDS011;12935;50.782;6.074;2023-07-13T05:41:54;23.93;;;11.40;;
24857;SDS011;12935;50.782;6.074;2023-07-13T05:44:19;40.67;;;11.47;;
24857;SDS011;12935;50.782;6.074;2023-07-13T05:46:44;22.23;;;9.97;;
24857;SDS011;12935;50.782;6.074;2023-07-13T05:49:09;17.27;;;9.77;;
24857;SDS011;12935;50.782;6.074;2023-07-13T05:51:35;33.77;;;11.37;;
24857;SDS011;12935;50.782;6.074;2023-07-13T05:54:00;17.53;;;10.00;;
24857;SDS011;12935;50.782;6.074;2023-07-13T05:56:25;21.27;;;10.03;;
24857;SDS011;12935;50.782;6.074;2023-07-13T05:58:51;38.83;;;12.23;;
24857;SDS011;12935;50.782;6.074;2023-07-13T06:01:17;15.23;;;9.47;;
24857;SDS011;12935;50.782;6.074;2023-07-13T06:03:43;52.60;;;13.47;;
24857;SDS011;12935;50.782;6.074;2023-07-13T06:06:09;39.90;;;11.87;;
24857;SDS011;12935;50.782;6.074;2023-07-13T06:08:35;28.83;;;11.17;;
24857;SDS011;12935;50.782;6.074;2023-07-13T06:11:01;23.23;;;10.23;;
24857;SDS011;12935;50.782;6.074;2023-07-13T06:13:44;31.80;;;14.13;;
24857;SDS011;12935;50.782;6.074;2023-07-13T06:16:10;34.13;;;11.07;;
24857;SDS011;12935;50.782;6.074;2023-07-13T06:18:36;28.90;;;11.43;;
24857;SDS011;12935;50.782;6.074;2023-07-13T06:21:06;33.10;;;12.90;;
24857;SDS011;12935;50.782;6.074;2023-07-13T06:23:32;33.63;;;12.47;;
24857;SDS011;12935;50.782;6.074;2023-07-13T06:25:57;31.80;;;11.00;;
24857;SDS011;12935;50.782;6.074;2023-07-13T06:28:23;21.07;;;11.47;;
24857;SDS011;12935;50.782;6.074;2023-07-13T06:30:48;41.27;;;12.40;;
24857;SDS011;12935;50.782;6.074;2023-07-13T06:33:13;20.83;;;11.47;;
24857;SDS011;12935;50.782;6.074;2023-07-13T06:35:39;30.93;;;11.77;;
24857;SDS011;12935;50.782;6.074;2023-07-13T06:38:04;44.30;;;12.80;;
24857;SDS011;12935;50.782;6.074;2023-07-13T06:40:30;27.23;;;11.60;;
24857;SDS011;12935;50.782;6.074;2023-07-13T06:42:55;27.83;;;11.67;;
24857;SDS011;12935;50.782;6.074;2023-07-13T06:45:20;22.77;;;10.63;;
24857;SDS011;12935;50.782;6.074;2023-07-13T06:47:46;24.00;;;13.07;;
24857;SDS011;12935;50.782;6.074;2023-07-13T06:50:11;33.73;;;13.00;;
24857;SDS011;12935;50.782;6.074;2023-07-13T06:52:37;30.67;;;11.83;;
24857;SDS011;12935;50.782;6.074;2023-07-13T06:55:02;32.97;;;11.27;;
24857;SDS011;12935;50.782;6.074;2023-07-13T06:57:27;27.27;;;11.80;;
24857;SDS011;12935;50.782;6.074;2023-07-13T06:59:52;48.40;;;13.67;;
24857;SDS011;12935;50.782;6.074;2023-07-13T07:02:18;38.07;;;12.20;;
24857;SDS011;12935;50.782;6.074;2023-07-13T07:04:43;20.40;;;10.30;;
24857;SDS011;12935;50.782;6.074;2023-07-13T07:07:08;17.20;;;11.03;;
24857;SDS011;12935;50.782;6.074;2023-07-13T07:09:34;31.53;;;12.73;;
24857;SDS011;12935;50.782;6.074;2023-07-13T07:11:59;41.83;;;13.13;;
24857;SDS011;12935;50.782;6.074;2023-07-13T07:14:24;17.00;;;10.50;;
24857;SDS011;12935;50.782;6.074;2023-07-13T07:16:49;60.23;;;15.27;;
24857;SDS011;12935;50.782;6.074;2023-07-13T07:19:15;25.93;;;11.93;;
24857;SDS011;12935;50.782;6.074;2023-07-13T07:21:41;24.53;;;11.63;;
24857;SDS011;12935;50.782;6.074;2023-07-13T07:24:06;30.13;;;12.87;;
24857;SDS011;12935;50.782;6.074;2023-07-13T07:26:32;18.53;;;10.93;;
24857;SDS011;12935;50.782;6.074;2023-07-13T07:28:58;44.10;;;13.17;;
24857;SDS011;12935;50.782;6.074;2023-07-13T07:31:23;25.43;;;12.03;;
24857;SDS011;12935;50.782;6.074;2023-07-13T07:33:48;35.83;;;12.47;;
24857;SDS011;12935;50.782;6.074;2023-07-13T07:36:14;51.17;;;14.20;;
24857;SDS011;12935;50.782;6.074;2023-07-13T07:38:41;34.37;;;12.70;;
24857;SDS011;12935;50.782;6.074;2023-07-13T07:41:06;27.53;;;12.57;;
24857;SDS011;12935;50.782;6.074;2023-07-13T07:43:32;37.33;;;13.03;;
24857;SDS011;12935;50.782;6.074;2023-07-13T07:45:57;16.30;;;10.70;;
24857;SDS011;12935;50.782;6.074;2023-07-13T07:48:22;34.50;;;14.03;;
24857;SDS011;12935;50.782;6.074;2023-07-13T07:50:48;26.83;;;12.70;;
24857;SDS011;12935;50.782;6.074;2023-07-13T07:53:13;24.93;;;12.87;;
24857;SDS011;12935;50.782;6.074;2023-07-13T07:55:39;33.77;;;12.97;;
24857;SDS011;12935;50.782;6.074;2023-07-13T07:58:05;40.90;;;14.70;;
24857;SDS011;12935;50.782;6.074;2023-07-13T08:00:30;22.30;;;11.43;;
24857;SDS011;12935;50.782;6.074;2023-07-13T08:02:56;29.80;;;13.23;;
24857;SDS011;12935;50.782;6.074;2023-07-13T08:05:22;23.80;;;12.90;;
24857;SDS011;12935;50.782;6.074;2023-07-13T08:07:48;42.90;;;14.67;;
24857;SDS011;12935;50.782;6.074;2023-07-13T08:10:13;29.13;;;13.33;;
24857;SDS011;12935;50.782;6.074;2023-07-13T08:12:39;41.63;;;14.50;;
24857;SDS011;12935;50.782;6.074;2023-07-13T08:15:05;21.97;;;12.50;;
24857;SDS011;12935;50.782;6.074;2023-07-13T08:17:33;29.30;;;12.30;;
24857;SDS011;12935;50.782;6.074;2023-07-13T08:19:59;43.77;;;13.10;;
24857;SDS011;12935;50.782;6.074;2023-07-13T08:22:24;20.53;;;11.83;;
24857;SDS011;12935;50.782;6.074;2023-07-13T08:24:49;30.47;;;12.50;;
24857;SDS011;12935;50.782;6.074;2023-07-13T08:27:21;17.10;;;10.87;;
24857;SDS011;12935;50.782;6.074;2023-07-13T08:29:49;67.27;;;16.93;;
24857;SDS011;12935;50.782;6.074;2023-07-13T08:32:15;33.73;;;13.13;;
24857;SDS011;12935;50.782;6.074;2023-07-13T08:34:41;41.93;;;14.87;;
24857;SDS011;12935;50.782;6.074;2023-07-13T08:37:07;24.23;;;12.07;;
24857;SDS011;12935;50.782;6.074;2023-07-13T08:39:34;55.57;;;16.40;;
24857;SDS011;12935;50.782;6.074;2023-07-13T08:42:01;16.00;;;12.07;;
24857;SDS011;12935;50.782;6.074;2023-07-13T08:47:09;34.90;;;13.60;;
24857;SDS011;12935;50.782;6.074;2023-07-13T08:49:36;26.83;;;13.90;;
24857;SDS011;12935;50.782;6.074;2023-07-13T08:52:08;15.60;;;11.90;;
24857;SDS011;12935;50.782;6.074;2023-07-13T08:54:43;16.50;;;12.20;;
24857;SDS011;12935;50.782;6.074;2023-07-13T08:57:16;22.27;;;13.40;;
24857;SDS011;12935;50.782;6.074;2023-07-13T08:59:44;56.47;;;17.57;;
24857;SDS011;12935;50.782;6.074;2023-07-13T09:02:18;28.87;;;13.70;;
24857;SDS011;12935;50.782;6.074;2023-07-13T09:04:50;39.03;;;18.10;;
24857;SDS011;12935;50.782;6.074;2023-07-13T09:15:27;24.67;;;14.30;;
24857;SDS011;12935;50.782;6.074;2023-07-13T09:18:01;28.83;;;14.50;;
24857;SDS011;12935;50.782;6.074;2023-07-13T09:20:43;16.97;;;13.57;;
24857;SDS011;12935;50.782;6.074;2023-07-13T09:23:19;21.33;;;13.97;;
24857;SDS011;12935;50.782;6.074;2023-07-13T09:25:49;22.73;;;14.50;;
24857;SDS011;12935;50.782;6.074;2023-07-13T09:28:22;37.53;;;15.50;;
24857;SDS011;12935;50.782;6.074;2023-07-13T09:33:18;17.60;;;14.23;;
24857;SDS011;12935;50.782;6.074;2023-07-13T09:35:43;20.90;;;14.07;;
24857;SDS011;12935;50.782;6.074;2023-07-13T09:38:16;32.37;;;15.30;;
24857;SDS011;12935;50.782;6.074;2023-07-13T09:40:46;29.33;;;15.17;;
24857;SDS011;12935;50.782;6.074;2023-07-13T09:43:21;20.43;;;14.80;;
24857;SDS011;12935;50.782;6.074;2023-07-13T09:45:47;23.17;;;14.70;;
24857;SDS011;12935;50.782;6.074;2023-07-13T09:48:13;35.73;;;14.63;;
24857;SDS011;12935;50.782;6.074;2023-07-13T09:50:40;18.77;;;15.10;;
24857;SDS011;12935;50.782;6.074;2023-07-13T09:53:13;14.83;;;13.20;;
24857;SDS011;12935;50.782;6.074;2023-07-13T09:55:41;26.33;;;15.17;;
24857;SDS011;12935;50.782;6.074;2023-07-13T09:58:27;20.60;;;13.73;;
24857;SDS011;12935;50.782;6.074;2023-07-13T10:01:02;33.80;;;16.50;;
24857;SDS011;12935;50.782;6.074;2023-07-13T10:03:30;35.07;;;17.30;;
24857;SDS011;12935;50.782;6.074;2023-07-13T10:06:13;20.03;;;14.93;;
24857;SDS011;12935;50.782;6.074;2023-07-13T10:08:40;33.97;;;16.00;;
24857;SDS011;12935;50.782;6.074;2023-07-13T10:11:09;25.63;;;15.23;;
24857;SDS011;12935;50.782;6.074;2023-07-13T10:13:37;36.07;;;16.37;;
24857;SDS011;12935;50.782;6.074;2023-07-13T10:16:07;30.17;;;16.33;;
24857;SDS011;12935;50.782;6.074;2023-07-13T10:18:39;24.83;;;15.60;;
24857;SDS011;12935;50.782;6.074;2023-07-13T10:21:18;20.20;;;14.40;;
24857;SDS011;12935;50.782;6.074;2023-07-13T10:23:54;30.17;;;15.97;;
24857;SDS011;12935;50.782;6.074;2023-07-13T10:26:27;23.43;;;14.77;;
24857;SDS011;12935;50.782;6.074;2023-07-13T10:28:57;36.80;;;16.33;;
24857;SDS011;12935;50.782;6.074;2023-07-13T10:31:26;24.60;;;14.80;;
24857;SDS011;12935;50.782;6.074;2023-07-13T10:33:51;31.87;;;15.47;;
24857;SDS011;12935;50.782;6.074;2023-07-13T10:36:19;27.63;;;13.80;;
24857;SDS011;12935;50.782;6.074;2023-07-13T10:38:53;37.57;;;16.63;;
24857;SDS011;12935;50.782;6.074;2023-07-13T10:41:22;25.27;;;15.00;;
24857;SDS011;12935;50.782;6.074;2023-07-13T10:43:51;22.80;;;14.40;;
24857;SDS011;12935;50.782;6.074;2023-07-13T10:46:20;39.63;;;16.17;;
24857;SDS011;12935;50.782;6.074;2023-07-13T10:48:49;46.83;;;16.53;;
24857;SDS011;12935;50.782;6.074;2023-07-13T10:51:17;15.57;;;14.07;;
24857;SDS011;12935;50.782;6.074;2023-07-13T10:53:46;24.33;;;15.47;;
24857;SDS011;12935;50.782;6.074;2023-07-13T11:01:27;33.00;;;16.37;;
24857;SDS011;12935;50.782;6.074;2023-07-13T11:04:17;34.33;;;16.73;;
24857;SDS011;12935;50.782;6.074;2023-07-13T11:06:45;33.50;;;16.57;;
24857;SDS011;12935;50.782;6.074;2023-07-13T11:11:44;21.80;;;15.00;;
24857;SDS011;12935;50.782;6.074;2023-07-13T11:14:27;46.83;;;17.70;;
24857;SDS011;12935;50.782;6.074;2023-07-13T11:16:53;36.83;;;17.40;;
24857;SDS011;12935;50.782;6.074;2023-07-13T11:27:22;20.70;;;14.40;;
24857;SDS011;12935;50.782;6.074;2023-07-13T11:32:45;28.37;;;15.83;;
24857;SDS011;12935;50.782;6.074;2023-07-13T11:35:19;38.13;;;16.93;;
24857;SDS011;12935;50.782;6.074;2023-07-13T11:37:51;26.10;;;15.20;;
24857;SDS011;12935;50.782;6.074;2023-07-13T11:40:17;43.57;;;18.17;;
24857;SDS011;12935;50.782;6.074;2023-07-13T11:42:42;24.83;;;14.87;;
24857;SDS011;12935;50.782;6.074;2023-07-13T11:45:20;16.80;;;13.87;;
24857;SDS011;12935;50.782;6.074;2023-07-13T11:47:48;25.77;;;14.17;;
24857;SDS011;12935;50.782;6.074;2023-07-13T11:50:20;48.83;;;18.87;;
24857;SDS011;12935;50.782;6.074;2023-07-13T11:52:47;19.07;;;14.57;;
24857;SDS011;12935;50.782;6.074;2023-07-13T11:55:16;25.50;;;16.33;;
24857;SDS011;12935;50.782;6.074;2023-07-13T11:58:00;31.70;;;17.43;;
24857;SDS011;12935;50.782;6.074;2023-07-13T12:00:28;21.87;;;17.70;;
24857;SDS011;12935;50.782;6.074;2023-07-13T12:02:56;41.63;;;18.93;;
24857;SDS011;12935;50.782;6.074;2023-07-13T12:05:24;31.40;;;18.77;;
24857;SDS011;12935;50.782;6.074;2023-07-13T12:07:49;34.87;;;18.83;;
24857;SDS011;12935;50.782;6.074;2023-07-13T12:10:17;28.20;;;17.90;;
24857;SDS011;12935;50.782;6.074;2023-07-13T12:18:02;28.07;;;18.77;;
24857;SDS011;12935;50.782;6.074;2023-07-13T12:20:29;26.80;;;17.40;;
24857;SDS011;12935;50.782;6.074;2023-07-13T12:23:01;35.73;;;18.90;;
24857;SDS011;12935;50.782;6.074;2023-07-13T12:25:27;33.47;;;18.63;;
24857;SDS011;12935;50.782;6.074;2023-07-13T12:27:53;19.00;;;17.20;;
24857;SDS011;12935;50.782;6.074;2023-07-13T12:30:23;32.40;;;18.20;;
24857;SDS011;12935;50.782;6.074;2023-07-13T12:33:10;29.17;;;18.50;;
24857;SDS011;12935;50.782;6.074;2023-07-13T12:35:41;47.73;;;19.33;;
24857;SDS011;12935;50.782;6.074;2023-07-13T12:38:12;35.17;;;18.87;;
24857;SDS011;12935;50.782;6.074;2023-07-13T12:40:37;35.17;;;17.90;;
24857;SDS011;12935;50.782;6.074;2023-07-13T12:43:05;22.07;;;16.63;;
24857;SDS011;12935;50.782;6.074;2023-07-13T12:45:36;33.60;;;18.90;;
24857;SDS011;12935;50.782;6.074;2023-07-13T12:48:06;27.50;;;19.10;;
24857;SDS011;12935;50.782;6.074;2023-07-13T12:50:46;25.90;;;18.63;;
24857;SDS011;12935;50.782;6.074;2023-07-13T12:53:13;22.43;;;17.50;;
24857;SDS011;12935;50.782;6.074;2023-07-13T12:55:45;31.07;;;18.80;;
24857;SDS011;12935;50.782;6.074;2023-07-13T12:58:21;23.73;;;17.80;;
24857;SDS011;12935;50.782;6.074;2023-07-13T13:00:55;27.87;;;18.03;;
24857;SDS011;12935;50.782;6.074;2023-07-13T13:03:38;19.03;;;17.20;;
24857;SDS011;12935;50.782;6.074;2023-07-13T13:08:45;44.77;;;19.90;;
24857;SDS011;12935;50.782;6.074;2023-07-13T13:11:23;24.63;;;16.90;;
24857;SDS011;12935;50.782;6.074;2023-07-13T13:13:49;23.60;;;16.97;;
24857;SDS011;12935;50.782;6.074;2023-07-13T13:18:50;50.83;;;19.53;;
24857;SDS011;12935;50.782;6.074;2023-07-13T13:21:17;18.33;;;16.63;;
24857;SDS011;12935;50.782;6.074;2023-07-13T13:23:43;23.47;;;17.40;;
24857;SDS011;12935;50.782;6.074;2023-07-13T13:26:15;25.27;;;17.77;;
24857;SDS011;12935;50.782;6.074;2023-07-13T13:28:41;28.17;;;19.30;;
24857;SDS011;12935;50.782;6.074;2023-07-13T13:31:09;32.27;;;18.70;;
24857;SDS011;12935;50.782;6.074;2023-07-13T13:33:39;29.77;;;19.07;;
24857;SDS011;12935;50.782;6.074;2023-07-13T13:36:18;39.57;;;19.97;;
24857;SDS011;12935;50.782;6.074;2023-07-13T13:38:47;27.43;;;16.47;;
24857;SDS011;12935;50.782;6.074;2023-07-13T13:41:13;19.97;;;17.97;;
24857;SDS011;12935;50.782;6.074;2023-07-13T13:43:40;27.13;;;18.97;;
24857;SDS011;12935;50.782;6.074;2023-07-13T13:46:19;34.97;;;18.97;;
24857;SDS011;12935;50.782;6.074;2023-07-13T13:48:47;41.97;;;20.50;;
24857;SDS011;12935;50.782;6.074;2023-07-13T13:53:41;23.93;;;18.67;;
24857;SDS011;12935;50.782;6.074;2023-07-13T13:56:07;26.23;;;17.90;;
24857;SDS011;12935;50.782;6.074;2023-07-13T13:58:32;98.37;;;19.87;;
24857;SDS011;12935;50.782;6.074;2023-07-13T14:00:57;27.30;;;18.57;;
24857;SDS011;12935;50.782;6.074;2023-07-13T14:03:23;31.77;;;17.13;;
24857;SDS011;12935;50.782;6.074;2023-07-13T14:05:49;47.87;;;21.00;;
24857;SDS011;12935;50.782;6.074;2023-07-13T14:08:15;41.63;;;19.33;;
24857;SDS011;12935;50.782;6.074;2023-07-13T14:10:45;20.27;;;17.80;;
24857;SDS011;12935;50.782;6.074;2023-07-13T14:13:15;27.03;;;18.03;;
24857;SDS011;12935;50.782;6.074;2023-07-13T14:15:43;43.30;;;19.73;;
24857;SDS011;12935;50.782;6.074;2023-07-13T14:18:09;32.97;;;19.30;;
24857;SDS011;12935;50.782;6.074;2023-07-13T14:20:34;22.10;;;18.30;;
24857;SDS011;12935;50.782;6.074;2023-07-13T14:22:59;26.50;;;18.57;;
24857;SDS011;12935;50.782;6.074;2023-07-13T14:25:25;33.27;;;19.07;;
24857;SDS011;12935;50.782;6.074;2023-07-13T14:27:52;33.17;;;17.40;;
24857;SDS011;12935;50.782;6.074;2023-07-13T14:30:21;38.97;;;19.60;;
24857;SDS011;12935;50.782;6.074;2023-07-13T14:32:47;27.90;;;17.90;;
24857;SDS011;12935;50.782;6.074;2023-07-13T14:35:14;31.53;;;19.47;;
24857;SDS011;12935;50.782;6.074;2023-07-13T14:37:41;40.07;;;19.87;;
24857;SDS011;12935;50.782;6.074;2023-07-13T14:40:17;38.73;;;17.70;;
24857;SDS011;12935;50.782;6.074;2023-07-13T14:42:46;24.77;;;17.63;;
24857;SDS011;12935;50.782;6.074;2023-07-13T14:45:13;33.93;;;19.23;;
24857;SDS011;12935;50.782;6.074;2023-07-13T14:47:40;32.40;;;19.57;;
24857;SDS011;12935;50.782;6.074;2023-07-13T14:50:11;29.33;;;18.87;;
24857;SDS011;12935;50.782;6.074;2023-07-13T14:52:38;34.33;;;18.27;;
24857;SDS011;12935;50.782;6.074;2023-07-13T14:55:04;26.20;;;16.83;;
24857;SDS011;12935;50.782;6.074;2023-07-13T14:57:34;38.00;;;18.13;;
24857;SDS011;12935;50.782;6.074;2023-07-13T15:00:00;28.07;;;16.40;;
24857;SDS011;12935;50.782;6.074;2023-07-13T15:02:32;32.53;;;17.57;;
24857;SDS011;12935;50.782;6.074;2023-07-13T15:05:00;45.93;;;18.77;;
24857;SDS011;12935;50.782;6.074;2023-07-13T15:07:26;25.60;;;16.80;;
24857;SDS011;12935;50.782;6.074;2023-07-13T15:09:51;56.93;;;20.23;;